Time;durP1;ratioP1;P1;durP2;ratioP2;P2;SDS_P1;SDS_P2;PMS_P1;PMS_P2;Temp;Humidity;BMP_temperature;BMP_pressure;BME280_temperature;BME280_humidity;BME280_pressure;Samples;Min_cycle;Max_cycle;Signal;HPM_P1;HPM_P2
2021/05/11 00:01:35;;;;;;;0.93;0.83;;;;;;;18.01;78.59;100319.97;5114132;28;20439;-70
2021/05/11 00:04:01;;;;;;;0.87;0.87;;;;;;;18.03;78.73;100320.41;5113818;28;20972;-68
2021/05/11 00:06:27;;;;;;;0.57;0.53;;;;;;;18.05;78.36;100312.63;5113525;28;20869;-69
2021/05/11 00:08:53;;;;;;;0.90;0.73;;;;;;;17.96;78.12;100310.06;5113915;28;20423;-69
2021/05/11 00:11:19;;;;;;;0.70;0.60;;;;;;;17.97;77.99;100310.88;5113787;28;20504;-68
2021/05/11 00:13:45;;;;;;;0.90;0.70;;;;;;;17.98;77.83;100301.50;5113404;28;20460;-69
2021/05/11 00:16:11;;;;;;;1.20;1.00;;;;;;;17.94;77.80;100301.44;5113886;28;20454;-68
2021/05/11 00:18:37;;;;;;;1.00;0.80;;;;;;;17.95;78.13;100305.75;5113768;28;20850;-68
2021/05/11 00:21:04;;;;;;;0.70;0.50;;;;;;;17.92;78.03;100308.41;5113238;28;20452;-69
2021/05/11 00:23:30;;;;;;;0.80;0.60;;;;;;;17.92;77.83;100291.97;5113320;28;20459;-68
2021/05/11 00:25:56;;;;;;;1.03;0.60;;;;;;;17.86;77.85;100284.03;5113643;28;20440;-69
2021/05/11 00:28:22;;;;;;;3.57;0.90;;;;;;;17.93;77.67;100288.88;5113614;28;20447;-69
2021/05/11 00:30:49;;;;;;;1.33;0.87;;;;;;;17.94;77.81;100284.19;5113461;28;20846;-69
2021/05/11 00:33:15;;;;;;;3.93;1.10;;;;;;;17.94;77.72;100292.41;5117607;28;20849;-69
2021/05/11 00:35:41;;;;;;;1.03;0.80;;;;;;;17.94;77.78;100295.16;5117820;28;20499;-68
2021/05/11 00:38:07;;;;;;;0.83;0.60;;;;;;;17.93;78.37;100285.31;5117859;28;20946;-68
2021/05/11 00:40:33;;;;;;;1.93;0.70;;;;;;;17.84;78.30;100278.13;5117785;28;20518;-68
2021/05/11 00:42:59;;;;;;;1.00;0.90;;;;;;;17.77;78.04;100271.69;5117532;28;20467;-69
2021/05/11 00:45:25;;;;;;;1.23;0.60;;;;;;;17.80;78.15;100269.03;5117631;28;20450;-69
2021/05/11 00:47:52;;;;;;;0.60;0.50;;;;;;;17.82;78.57;100280.41;5117495;28;20452;-68
2021/05/11 00:50:18;;;;;;;1.03;0.73;;;;;;;17.79;78.48;100285.81;5117412;28;20508;-69
2021/05/11 00:52:44;;;;;;;0.93;0.83;;;;;;;17.73;78.20;100273.50;5117256;28;20439;-69
2021/05/11 00:55:11;;;;;;;0.70;0.67;;;;;;;17.70;78.22;100266.78;5117410;28;20443;-69
2021/05/11 00:57:37;;;;;;;1.07;0.97;;;;;;;17.73;78.51;100268.81;5117270;28;20431;-69
2021/05/11 01:00:07;;;;;;;3.20;0.80;;;;;;;17.70;79.04;100268.75;5116871;28;20839;-69
2021/05/11 01:02:33;;;;;;;1.00;0.60;;;;;;;17.59;78.15;100254.81;5123474;28;20428;-68
2021/05/11 01:05:00;;;;;;;1.40;1.30;;;;;;;17.47;78.12;100260.38;5116813;28;20538;-69
2021/05/11 01:07:27;;;;;;;1.63;1.00;;;;;;;17.49;78.14;100261.63;5117170;28;20446;-69
2021/05/11 01:09:53;;;;;;;0.83;0.70;;;;;;;17.49;78.57;100264.38;5117188;28;20439;-68
2021/05/11 01:12:19;;;;;;;1.07;0.77;;;;;;;17.47;78.79;100263.13;5116988;28;20446;-68
2021/05/11 01:14:47;;;;;;;0.70;0.60;;;;;;;17.37;79.54;100261.72;5116806;28;20832;-66
2021/05/11 01:17:17;;;;;;;0.70;0.50;;;;;;;17.31;79.65;100257.66;5116733;28;20488;-68
2021/05/11 01:19:46;;;;;;;1.97;1.07;;;;;;;17.30;80.02;100262.34;5116265;28;20459;-68
2021/05/11 01:22:45;;;;;;;0.87;0.77;;;;;;;17.28;80.33;100255.66;5116567;28;20428;-69
2021/05/11 01:25:16;;;;;;;0.90;0.70;;;;;;;17.32;80.15;100249.09;5116243;28;20544;-71
2021/05/11 01:27:53;;;;;;;0.50;0.50;;;;;;;17.31;80.38;100249.44;5116374;28;20847;-70
2021/05/11 01:44:24;;;;;;;0.67;0.60;;;;;;;17.23;80.27;100214.84;5115945;28;20455;-70
2021/05/11 01:49:59;;;;;;;1.13;0.90;;;;;;;17.20;80.43;100210.88;5100051;28;20918;-70
2021/05/11 01:52:34;;;;;;;1.20;1.10;;;;;;;17.22;80.30;100207.78;5116188;28;20833;-70
2021/05/11 01:55:16;;;;;;;0.87;0.77;;;;;;;17.28;79.98;100204.41;5116104;28;20463;-70
2021/05/11 01:58:16;;;;;;;0.83;0.83;;;;;;;17.31;79.86;100205.63;5116135;28;20436;-70
2021/05/11 02:22:40;;;;;;;1.13;0.63;;;;;;;17.13;80.71;100197.00;5115350;28;20492;-70
2021/05/11 02:25:07;;;;;;;1.20;1.00;;;;;;;17.14;80.50;100209.56;5115235;28;20415;-69
2021/05/11 02:27:35;;;;;;;1.40;0.73;;;;;;;17.18;80.51;100209.63;5115988;28;20439;-70
2021/05/11 02:30:02;;;;;;;0.90;0.60;;;;;;;17.16;79.61;100204.50;5114930;28;21029;-70
2021/05/11 02:32:28;;;;;;;1.20;0.80;;;;;;;17.05;79.42;100193.31;5115329;28;20439;-69
2021/05/11 02:34:54;;;;;;;1.00;0.90;;;;;;;17.01;79.55;100199.84;5114889;28;20499;-70
2021/05/11 02:37:20;;;;;;;2.37;1.13;;;;;;;16.97;80.26;100198.97;5115252;28;20450;-70
2021/05/11 02:39:46;;;;;;;1.13;0.80;;;;;;;16.97;80.82;100204.44;5115164;28;20447;-70
2021/05/11 02:42:13;;;;;;;1.47;0.83;;;;;;;17.02;80.28;100196.75;5115145;28;20504;-69
2021/05/11 02:44:41;;;;;;;0.90;0.80;;;;;;;17.01;80.28;100199.84;5115227;28;20459;-70
2021/05/11 02:47:08;;;;;;;1.40;1.13;;;;;;;16.96;80.93;100191.91;5118531;28;20520;-70
2021/05/11 02:49:36;;;;;;;0.80;0.70;;;;;;;16.97;80.96;100196.25;5115023;28;20446;-70
2021/05/11 02:52:03;;;;;;;0.60;0.50;;;;;;;17.00;80.31;100188.13;5114864;28;20491;-69
2021/05/11 02:54:28;;;;;;;0.80;0.60;;;;;;;17.03;81.11;100194.81;5114013;28;20466;-69
2021/05/11 02:56:54;;;;;;;0.90;0.80;;;;;;;17.08;81.00;100189.06;5114807;28;20440;-70
2021/05/11 02:59:20;;;;;;;1.20;0.73;;;;;;;17.04;81.23;100196.41;5114818;28;20522;-70
2021/05/11 03:01:47;;;;;;;1.27;0.90;;;;;;;17.09;80.87;100202.41;5114823;28;20436;-71
2021/05/11 03:04:13;;;;;;;0.80;0.70;;;;;;;17.14;80.87;100196.66;5114290;28;21054;-70
2021/05/11 03:06:39;;;;;;;1.37;0.80;;;;;;;17.17;80.70;100202.56;5114281;28;20451;-70
2021/05/11 03:09:06;;;;;;;0.80;0.80;;;;;;;17.18;80.42;100202.22;5114630;28;20432;-70
2021/05/11 03:11:32;;;;;;;1.70;0.70;;;;;;;17.19;80.19;100195.59;5114547;28;20479;-69
2021/05/11 03:13:57;;;;;;;0.97;0.80;;;;;;;17.18;80.35;100188.56;5114579;28;20456;-70
2021/05/11 03:16:24;;;;;;;0.93;0.83;;;;;;;17.13;79.68;100180.59;5114565;28;20805;-71
2021/05/11 03:18:51;;;;;;;1.63;0.70;;;;;;;17.19;80.15;100181.13;5114395;28;20950;-71
2021/05/11 03:21:17;;;;;;;1.60;0.90;;;;;;;17.15;80.35;100165.41;5114070;28;20495;-70
2021/05/11 03:23:43;;;;;;;1.33;1.03;;;;;;;17.10;79.50;100165.69;5114328;28;20487;-70
2021/05/11 03:26:09;;;;;;;0.70;0.70;;;;;;;17.12;79.45;100181.75;5114334;28;20443;-70
2021/05/11 03:28:35;;;;;;;0.57;0.50;;;;;;;17.15;79.51;100189.25;5114236;28;20440;-70
2021/05/11 03:31:01;;;;;;;1.73;1.27;;;;;;;17.11;78.43;100186.41;5114090;28;20491;-71
2021/05/11 03:33:27;;;;;;;0.60;0.60;;;;;;;17.11;78.24;100178.22;5114155;28;20459;-69
2021/05/11 03:35:54;;;;;;;1.53;0.83;;;;;;;17.11;77.82;100178.22;5113892;28;20440;-70
2021/05/11 03:38:19;;;;;;;2.10;0.77;;;;;;;17.10;78.04;100184.06;5114471;28;20846;-69
2021/05/11 03:40:45;;;;;;;1.10;0.67;;;;;;;17.04;78.44;100186.25;5114070;28;20431;-71
2021/05/11 03:43:14;;;;;;;1.00;0.90;;;;;;;17.08;78.93;100178.91;5113954;28;20520;-71
2021/05/11 03:45:43;;;;;;;1.07;0.97;;;;;;;17.04;79.54;100172.56;5113687;28;20893;-70
2021/05/11 03:48:10;;;;;;;1.10;1.00;;;;;;;17.12;80.03;100173.53;5113874;28;20439;-70
2021/05/11 03:50:36;;;;;;;0.70;0.67;;;;;;;17.09;80.03;100166.06;5113892;28;20480;-71
2021/05/11 03:53:03;;;;;;;1.40;0.70;;;;;;;17.06;80.17;100169.47;5113916;28;20528;-70
2021/05/11 03:55:29;;;;;;;1.20;1.00;;;;;;;17.01;80.07;100167.03;5114076;28;20431;-71
2021/05/11 03:57:55;;;;;;;1.27;1.00;;;;;;;16.98;80.46;100152.09;5113881;28;20439;-71
2021/05/11 04:00:21;;;;;;;1.00;0.90;;;;;;;17.00;80.42;100154.47;5113597;28;20504;-70
2021/05/11 04:02:47;;;;;;;1.30;1.10;;;;;;;17.02;79.98;100157.66;5113380;28;21001;-70
2021/05/11 04:05:15;;;;;;;2.20;1.17;;;;;;;17.11;79.49;100145.38;5113606;28;20461;-70
2021/05/11 04:07:42;;;;;;;1.90;1.10;;;;;;;17.16;79.44;100147.03;5113652;28;20448;-71
2021/05/11 04:10:16;;;;;;;1.90;1.37;;;;;;;17.22;79.42;100144.81;5113591;28;20494;-71
2021/05/11 04:13:00;;;;;;;1.83;1.03;;;;;;;17.25;78.95;100141.38;5113626;28;20515;-71
2021/05/11 04:18:10;;;;;;;5.73;1.60;;;;;;;17.26;79.19;100134.75;5113486;28;20400;-70
2021/05/11 04:20:36;;;;;;;2.60;1.00;;;;;;;17.29;78.82;100136.78;5113180;28;20453;-70
2021/05/11 04:23:02;;;;;;;1.20;1.10;;;;;;;17.33;79.03;100138.44;5113485;28;20516;-70
2021/05/11 04:25:29;;;;;;;1.10;0.87;;;;;;;17.31;78.20;100124.31;5113216;28;20902;-70
2021/05/11 04:27:55;;;;;;;1.37;0.90;;;;;;;17.38;78.36;100121.72;5113501;28;20439;-72
2021/05/11 04:30:21;;;;;;;1.47;1.20;;;;;;;17.53;78.51;100113.81;5115317;28;21023;-71
2021/05/11 04:32:47;;;;;;;1.00;0.83;;;;;;;17.64;77.90;100112.88;5114711;28;20492;-71
2021/05/11 04:35:13;;;;;;;1.73;1.33;;;;;;;17.62;77.46;100104.25;5113566;28;20443;-71
2021/05/11 04:37:39;;;;;;;1.50;1.40;;;;;;;17.76;77.31;100114.72;5113452;28;20818;-71
2021/05/11 04:40:06;;;;;;;1.30;0.90;;;;;;;17.85;77.12;100111.78;5113291;28;20435;-70
2021/05/11 04:42:33;;;;;;;1.20;1.10;;;;;;;17.98;76.72;100106.94;5113727;28;20431;-69
2021/05/11 04:45:00;;;;;;;2.50;1.50;;;;;;;18.08;76.40;100100.84;5113384;28;20455;-70
2021/05/11 04:47:31;;;;;;;2.30;1.27;;;;;;;18.10;75.86;100093.81;5113389;28;20880;-71
2021/05/11 04:49:57;;;;;;;1.27;1.17;;;;;;;18.17;76.00;100097.88;5113233;28;20432;-72
2021/05/11 04:52:23;;;;;;;1.00;0.93;;;;;;;18.22;76.44;100092.09;5113379;28;20503;-71
2021/05/11 04:54:49;;;;;;;1.53;1.03;;;;;;;18.09;74.92;100103.22;5113215;28;20459;-71
2021/05/11 04:57:15;;;;;;;5.23;1.60;;;;;;;18.07;75.00;100102.00;5113289;28;20960;-71
2021/05/11 04:59:42;;;;;;;1.77;1.07;;;;;;;18.21;75.11;100101.47;5113228;28;20957;-72
2021/05/11 05:02:08;;;;;;;1.10;1.03;;;;;;;18.32;74.34;100105.97;5113164;28;20446;-72
2021/05/11 05:04:37;;;;;;;1.40;1.30;;;;;;;18.39;74.40;100103.38;5113240;28;20555;-71
2021/05/11 05:07:03;;;;;;;1.97;1.60;;;;;;;18.40;74.16;100106.91;5113060;28;20482;-71
2021/05/11 05:09:28;;;;;;;1.53;1.40;;;;;;;18.45;74.44;100100.31;5113142;28;20439;-69
2021/05/11 05:11:54;;;;;;;1.43;1.17;;;;;;;18.44;75.06;100088.56;5112638;28;20848;-72
2021/05/11 05:14:20;;;;;;;1.77;1.63;;;;;;;18.46;74.66;100090.91;5112735;28;20475;-71
2021/05/11 05:16:47;;;;;;;1.63;1.43;;;;;;;18.44;74.34;100083.06;5113216;28;20435;-71
2021/05/11 05:19:13;;;;;;;1.60;1.10;;;;;;;18.37;73.61;100086.50;5116549;28;20436;-73
2021/05/11 05:21:39;;;;;;;3.77;2.30;;;;;;;18.33;73.99;100077.41;5116613;28;20517;-70
2021/05/11 05:24:10;;;;;;;2.37;1.13;;;;;;;18.31;73.35;100073.44;5117759;28;20474;-72
2021/05/11 05:26:36;;;;;;;1.00;0.90;;;;;;;18.37;74.43;100077.44;5116770;28;20424;-72
2021/05/11 05:29:03;;;;;;;2.10;1.30;;;;;;;18.34;75.26;100072.72;5116481;28;20967;-71
2021/05/11 05:31:29;;;;;;;1.30;1.10;;;;;;;18.39;74.92;100058.69;5116181;28;20467;-71
2021/05/11 05:33:56;;;;;;;1.77;1.57;;;;;;;18.41;74.95;100057.16;5116499;28;20508;-71
2021/05/11 05:36:23;;;;;;;2.40;1.60;;;;;;;18.39;75.54;100048.50;5116554;28;20435;-71
2021/05/11 05:38:49;;;;;;;2.90;1.60;;;;;;;18.42;74.74;100041.53;5116451;28;20467;-72
2021/05/11 05:41:21;;;;;;;1.40;1.30;;;;;;;18.44;74.81;100049.38;5116336;28;20450;-72
2021/05/11 05:43:47;;;;;;;2.87;2.00;;;;;;;18.51;74.55;100049.50;5116448;28;20455;-71
2021/05/11 05:46:13;;;;;;;3.10;1.40;;;;;;;18.53;75.02;100047.16;5116189;28;20432;-71
2021/05/11 05:48:39;;;;;;;1.70;1.50;;;;;;;18.45;74.68;100053.69;5115938;28;20618;-71
2021/05/11 05:51:06;;;;;;;1.97;1.70;;;;;;;18.54;74.71;100048.75;5116024;28;20483;-72
2021/05/11 05:53:36;;;;;;;1.77;1.40;;;;;;;18.60;74.67;100050.81;5115761;28;20607;-72
2021/05/11 05:56:03;;;;;;;3.50;1.90;;;;;;;18.67;74.40;100053.66;5116011;28;20522;-71
2021/05/11 05:58:29;;;;;;;2.40;1.27;;;;;;;18.74;74.61;100044.78;5116183;28;20452;-72
2021/05/11 06:00:58;;;;;;;1.70;1.50;;;;;;;18.81;74.32;100042.13;5115550;28;20447;-71
2021/05/11 06:03:34;;;;;;;2.20;1.63;;;;;;;18.92;74.20;100045.03;5115709;28;20499;-70
2021/05/11 06:06:00;;;;;;;1.70;1.60;;;;;;;19.00;75.14;100038.50;5115850;28;20438;-68
2021/05/11 06:08:28;;;;;;;2.37;1.97;;;;;;;19.09;74.43;100035.47;5115744;28;20439;-70
2021/05/11 06:10:58;;;;;;;1.77;1.60;;;;;;;19.13;74.33;100030.81;5115581;28;20480;-71
2021/05/11 06:13:29;;;;;;;2.40;1.73;;;;;;;19.17;74.25;100023.41;5115658;28;20467;-70
2021/05/11 06:18:39;;;;;;;2.33;1.63;;;;;;;19.12;74.31;100020.97;5115120;28;20459;-69
2021/05/11 06:21:05;;;;;;;1.33;1.17;;;;;;;19.16;74.36;100032.81;5115136;28;20560;-69
2021/05/11 06:23:32;;;;;;;2.03;1.60;;;;;;;19.28;74.56;100037.28;5115373;28;20463;-69
2021/05/11 06:25:58;;;;;;;1.93;1.20;;;;;;;19.39;74.17;100050.00;5115347;28;20450;-71
2021/05/11 06:28:24;;;;;;;2.20;1.20;;;;;;;19.50;74.02;100049.31;5115347;28;20435;-71
2021/05/11 06:30:50;;;;;;;1.60;1.50;;;;;;;19.50;73.44;100061.09;5115270;28;20544;-70
2021/05/11 06:33:16;;;;;;;3.30;1.90;;;;;;;19.63;73.07;100058.91;5115119;28;20816;-70
2021/05/11 06:35:43;;;;;;;6.43;1.93;;;;;;;19.66;72.88;100058.19;5115434;28;20929;-70
2021/05/11 06:38:09;;;;;;;2.07;1.87;;;;;;;19.65;72.93;100062.84;5114772;28;21050;-71
2021/05/11 06:40:38;;;;;;;1.37;1.27;;;;;;;19.73;73.18;100052.75;5115131;28;20443;-71
2021/05/11 06:43:04;;;;;;;5.70;1.70;;;;;;;19.76;72.36;100052.00;5114635;28;20995;-71
2021/05/11 06:48:24;;;;;;;4.20;2.13;;;;;;;19.78;72.92;100060.66;5114564;28;20450;-70
2021/05/11 06:53:36;;;;;;;9.10;2.63;;;;;;;19.84;71.16;100059.16;5114776;28;20439;-70
2021/05/11 06:56:04;;;;;;;4.33;1.70;;;;;;;19.85;70.19;100058.00;5114472;28;20805;-71
2021/05/11 06:58:30;;;;;;;2.50;1.90;;;;;;;19.87;70.62;100058.38;5114727;28;20443;-69
2021/05/11 07:00:57;;;;;;;1.57;1.37;;;;;;;19.92;70.47;100057.25;5114414;28;20507;-70
2021/05/11 07:03:23;;;;;;;2.40;1.67;;;;;;;20.01;70.76;100062.44;5114759;28;20540;-69
2021/05/11 07:05:51;;;;;;;2.30;1.80;;;;;;;20.14;71.36;100061.00;5114419;28;20960;-69
2021/05/11 07:08:21;;;;;;;3.17;2.17;;;;;;;20.05;71.27;100055.03;5114651;28;20473;-69
2021/05/11 07:10:51;;;;;;;4.13;2.20;;;;;;;20.20;71.10;100048.50;5114212;28;20471;-68
2021/05/11 07:13:17;;;;;;;4.40;2.63;;;;;;;20.27;71.27;100043.06;5114533;28;20465;-68
2021/05/11 07:15:44;;;;;;;2.00;1.57;;;;;;;20.29;70.12;100054.47;5114395;28;20436;-68
2021/05/11 07:18:14;;;;;;;3.83;2.10;;;;;;;20.25;71.02;100050.13;5114111;28;20852;-69
2021/05/11 07:20:42;;;;;;;3.13;1.70;;;;;;;20.25;70.70;100048.16;5113877;28;20459;-68
2021/05/11 07:23:08;;;;;;;1.40;1.30;;;;;;;20.26;71.22;100046.97;5113924;28;20551;-69
2021/05/11 07:25:39;;;;;;;2.30;2.10;;;;;;;20.28;70.21;100063.91;5113380;28;20450;-69
2021/05/11 07:30:50;;;;;;;3.30;2.53;;;;;;;20.38;69.19;100068.72;5113935;28;20481;-69
2021/05/11 07:33:17;;;;;;;2.40;2.10;;;;;;;20.48;69.19;100070.00;5113947;28;20468;-68
2021/05/11 07:35:43;;;;;;;2.37;2.10;;;;;;;20.56;68.27;100076.34;5114141;28;20545;-69
2021/05/11 07:38:09;;;;;;;2.90;2.07;;;;;;;20.62;67.57;100075.59;5113990;28;20442;-69
2021/05/11 07:40:35;;;;;;;2.90;2.13;;;;;;;20.69;69.16;100071.34;5113350;28;21028;-69
2021/05/11 07:43:02;;;;;;;4.43;2.53;;;;;;;20.78;67.97;100063.53;5113887;28;20447;-72
2021/05/11 07:45:31;;;;;;;2.57;2.10;;;;;;;20.75;68.88;100056.03;5113838;28;20444;-69
2021/05/11 07:51:15;;;;;;;3.20;1.70;;;;;;;21.08;68.71;100044.06;5091730;28;20504;-68
2021/05/11 08:02:02;;;;;;;2.20;2.00;;;;;;;21.26;67.84;100042.19;5113648;28;20399;-71
2021/05/11 08:04:36;;;;;;;2.73;2.07;;;;;;;21.37;66.56;100042.25;5113649;28;20467;-70
2021/05/11 08:10:05;;;;;;;2.03;1.90;;;;;;;21.68;65.88;100046.28;5113594;28;20402;-70
2021/05/11 08:15:21;;;;;;;3.13;2.63;;;;;;;21.93;64.86;100049.13;5113277;28;20443;-71
2021/05/11 08:17:52;;;;;;;4.43;2.13;;;;;;;21.94;65.16;100047.13;5113267;28;20833;-71
2021/05/11 08:28:57;;;;;;;2.67;1.90;;;;;;;22.25;63.30;100029.84;5113141;28;20403;-71
2021/05/11 08:31:23;;;;;;;3.70;2.00;;;;;;;22.29;64.35;100025.13;5113354;28;20471;-70
2021/05/11 08:33:49;;;;;;;2.13;1.93;;;;;;;22.28;65.00;100026.31;5113304;28;20455;-70
2021/05/11 08:36:16;;;;;;;2.27;2.07;;;;;;;22.16;65.55;100023.94;5113221;28;20500;-72
2021/05/11 08:38:41;;;;;;;4.67;2.60;;;;;;;22.12;65.69;100021.19;5113046;28;20444;-72
2021/05/11 08:41:07;;;;;;;2.43;1.70;;;;;;;22.08;65.10;100020.34;5113264;28;20484;-72
2021/05/11 08:43:35;;;;;;;2.10;1.73;;;;;;;22.06;64.31;100021.94;5112992;28;20508;-72
2021/05/11 08:46:02;;;;;;;2.83;2.30;;;;;;;22.01;64.25;100027.84;5113374;28;20534;-72
2021/05/11 08:48:29;;;;;;;1.83;1.70;;;;;;;22.00;64.99;100027.06;5113322;28;20447;-71
2021/05/11 08:51:00;;;;;;;3.53;2.07;;;;;;;21.97;65.15;100016.81;5113047;28;20558;-70
2021/05/11 08:53:48;;;;;;;2.77;2.57;;;;;;;22.04;65.15;100013.25;5115805;28;20973;-72
2021/05/11 09:04:38;;;;;;;2.07;1.87;;;;;;;22.56;64.59;100016.44;5116738;28;20513;-71
2021/05/11 09:07:38;;;;;;;2.57;2.30;;;;;;;22.72;63.21;100013.28;5116406;28;20885;-71
2021/05/11 09:16:09;;;;;;;1.90;1.60;;;;;;;23.20;60.29;100009.97;5116968;28;20495;-70
2021/05/11 09:24:20;;;;;;;2.60;2.10;;;;;;;23.71;58.48;100005.81;5116314;28;20442;-70
2021/05/11 09:26:52;;;;;;;4.10;2.17;;;;;;;23.90;58.75;100008.84;5116803;28;20446;-70
2021/05/11 09:29:31;;;;;;;4.77;2.20;;;;;;;24.10;58.34;100008.31;5116677;28;20463;-71
2021/05/11 09:32:21;;;;;;;3.90;2.07;;;;;;;24.05;56.61;100008.75;5116489;28;20477;-72
2021/05/11 09:35:09;;;;;;;3.40;2.47;;;;;;;23.98;56.38;100006.03;5116754;28;20834;-73
2021/05/11 09:54:38;;;;;;;2.40;2.03;;;;;;;24.22;55.75;99968.28;5115903;28;20875;-72
2021/05/11 09:57:15;;;;;;;4.00;2.43;;;;;;;24.29;54.33;99968.22;5115715;28;20898;-71
2021/05/11 10:42:46;;;;;;;2.17;1.90;;;;;;;25.88;53.58;99941.75;5135509;27;20418;-70
2021/05/11 10:48:24;;;;;;;4.00;3.00;;;;;;;26.27;51.76;99934.75;5135708;27;20464;-71
2021/05/11 10:50:52;;;;;;;3.07;2.73;;;;;;;26.41;51.57;99928.91;5135091;27;20561;-71
2021/05/11 10:53:49;;;;;;;6.70;2.93;;;;;;;26.47;49.18;99932.00;5135438;27;20586;-71
2021/05/11 10:56:53;;;;;;;2.70;2.23;;;;;;;26.51;48.81;99927.97;5135309;27;20465;-71
2021/05/11 10:59:29;;;;;;;3.83;2.43;;;;;;;26.71;50.47;99924.44;5135340;27;20435;-71
2021/05/11 11:01:58;;;;;;;3.83;2.50;;;;;;;26.79;49.28;99926.63;5135366;27;20419;-70
2021/05/11 11:04:26;;;;;;;2.30;1.97;;;;;;;27.02;51.06;99922.97;5134901;27;20470;-71
2021/05/11 11:07:05;;;;;;;2.60;2.40;;;;;;;27.28;51.49;99918.47;5135167;27;20450;-72
2021/05/11 11:09:33;;;;;;;3.10;2.63;;;;;;;27.51;46.46;99917.53;5135241;27;20419;-71
2021/05/11 11:12:00;;;;;;;4.00;2.97;;;;;;;27.86;48.16;99912.38;5135089;27;20475;-70
2021/05/11 11:14:35;;;;;;;3.90;2.70;;;;;;;28.43;45.48;99915.69;5134541;27;20459;-70
2021/05/11 11:17:02;;;;;;;2.57;2.37;;;;;;;29.39;46.51;99910.09;5134956;27;20475;-69
2021/05/11 11:19:28;;;;;;;2.80;2.20;;;;;;;30.32;43.08;99909.84;5134807;27;20447;-69
2021/05/11 11:23:32;;;;;;;2.40;2.20;;;;;;;31.13;40.23;99910.91;5134941;27;20419;-69
2021/05/11 11:24:47;;;;;;;4.80;2.40;;;;;;;31.92;39.64;99919.78;5135693;27;20515;-70
2021/05/11 11:27:13;;;;;;;5.30;2.40;;;;;;;32.84;39.04;99920.56;5134791;27;20779;-69
2021/05/11 11:29:42;;;;;;;3.23;2.03;;;;;;;33.58;36.55;99920.34;5135061;27;20470;-69
2021/05/11 11:32:08;;;;;;;2.77;2.13;;;;;;;33.97;37.09;99906.41;5134678;27;20509;-68
2021/05/11 11:34:35;;;;;;;3.20;2.13;;;;;;;34.31;36.04;99919.09;5134549;27;20838;-68
2021/05/11 11:37:03;;;;;;;2.60;2.37;;;;;;;34.91;35.43;99915.13;5134580;27;20481;-69
2021/05/11 11:39:31;;;;;;;3.93;2.30;;;;;;;34.75;33.47;99919.19;5134622;27;20442;-69
2021/05/11 11:42:00;;;;;;;2.73;2.40;;;;;;;35.07;34.08;99911.84;5134570;27;20431;-68
2021/05/11 11:44:31;;;;;;;2.97;2.67;;;;;;;35.06;33.32;99906.69;5134439;27;20463;-69
2021/05/11 11:47:02;;;;;;;2.37;2.17;;;;;;;34.79;33.53;99902.88;5134543;27;20500;-69
2021/05/11 11:49:30;;;;;;;2.77;2.17;;;;;;;35.46;34.41;99906.00;5134381;27;20439;-69
2021/05/11 11:52:00;;;;;;;3.60;2.20;;;;;;;35.17;34.39;99901.25;5134341;27;20481;-69
2021/05/11 11:54:33;;;;;;;2.27;2.07;;;;;;;34.42;33.95;99898.84;5134271;27;20455;-69
2021/05/11 11:59:55;;;;;;;2.90;2.30;;;;;;;34.72;33.82;99894.84;5134143;27;20406;-69
2021/05/11 12:02:21;;;;;;;2.20;2.00;;;;;;;35.48;34.27;99892.25;5129361;27;20451;-70
2021/05/11 12:04:48;;;;;;;3.00;2.13;;;;;;;35.02;33.42;99894.84;5113556;28;20467;-71
2021/05/11 12:07:16;;;;;;;2.87;2.07;;;;;;;34.43;35.29;99900.41;5113606;28;20496;-69
2021/05/11 12:09:46;;;;;;;3.10;2.03;;;;;;;34.41;35.29;99905.75;5113484;28;20450;-72
2021/05/11 12:12:14;;;;;;;6.50;2.10;;;;;;;34.42;36.00;99907.28;5113490;28;20493;-72
2021/05/11 12:14:40;;;;;;;3.77;2.13;;;;;;;34.25;36.28;99904.94;5113363;28;20474;-72
2021/05/11 12:17:06;;;;;;;2.10;2.00;;;;;;;34.02;37.13;99900.91;5113511;28;20439;-72
2021/05/11 12:19:32;;;;;;;4.30;2.47;;;;;;;33.80;35.49;99894.78;5113365;28;20688;-72
2021/05/11 12:22:00;;;;;;;2.20;2.00;;;;;;;33.81;36.23;99897.09;5113514;28;20763;-71
2021/05/11 12:24:28;;;;;;;2.53;1.97;;;;;;;33.78;37.02;99900.88;5113353;28;20467;-71
2021/05/11 12:27:11;;;;;;;2.80;2.47;;;;;;;33.36;36.11;99892.50;5115563;28;20439;-70
2021/05/11 12:29:38;;;;;;;2.90;2.27;;;;;;;32.39;36.74;99891.31;5117765;28;20423;-70
2021/05/11 12:32:04;;;;;;;2.90;2.60;;;;;;;31.81;37.75;99880.97;5118247;27;21015;-70
2021/05/11 12:34:31;;;;;;;3.80;2.63;;;;;;;31.55;39.39;99880.44;5117178;28;20850;-71
2021/05/11 12:37:00;;;;;;;3.43;2.77;;;;;;;31.40;39.09;99885.06;5117515;28;20758;-72
2021/05/11 12:39:36;;;;;;;2.93;2.20;;;;;;;31.94;39.15;99883.66;5117372;28;20447;-71
2021/05/11 12:42:17;;;;;;;2.57;2.37;;;;;;;32.73;40.03;99881.00;5116887;28;20980;-71
2021/05/11 12:44:44;;;;;;;2.70;2.40;;;;;;;32.79;36.77;99879.09;5117394;28;20498;-73
2021/05/11 12:47:10;;;;;;;2.20;2.00;;;;;;;32.25;37.07;99875.09;5117015;28;20945;-72
2021/05/11 12:49:36;;;;;;;2.77;2.57;;;;;;;32.26;38.57;99875.88;5117377;28;20435;-71
2021/05/11 12:52:05;;;;;;;3.10;2.80;;;;;;;32.04;38.51;99876.03;5117166;28;20483;-71
2021/05/11 12:54:35;;;;;;;2.90;2.50;;;;;;;31.51;38.94;99873.44;5116756;28;20955;-71
2021/05/11 12:59:57;;;;;;;2.60;2.40;;;;;;;31.89;39.92;99884.28;5116951;28;20564;-71
2021/05/11 13:02:39;;;;;;;2.50;2.17;;;;;;;32.63;38.50;99882.28;5116968;28;20423;-71
2021/05/11 13:14:15;;;;;;;3.13;2.50;;;;;;;34.22;35.41;99883.38;5117409;28;20434;-72
2021/05/11 13:16:51;;;;;;;4.23;2.27;;;;;;;34.82;34.16;99889.88;5116862;28;20420;-71
2021/05/11 13:22:25;;;;;;;3.67;2.67;;;;;;;35.19;34.13;99859.28;5116561;28;20407;-71
2021/05/11 13:25:18;;;;;;;3.20;2.90;;;;;;;34.64;33.48;99851.47;5116564;28;20455;-71
2021/05/11 13:27:51;;;;;;;2.30;2.10;;;;;;;34.94;33.98;99843.78;5116599;28;20432;-70
2021/05/11 13:30:30;;;;;;;3.23;2.00;;;;;;;35.63;33.93;99838.66;5116320;28;20998;-71
2021/05/11 13:33:10;;;;;;;4.47;2.70;;;;;;;35.99;33.41;99836.53;5116346;28;20467;-72
2021/05/11 13:35:37;;;;;;;1.80;1.60;;;;;;;35.95;33.00;99835.97;5116425;28;20427;-72
2021/05/11 13:38:04;;;;;;;2.53;2.23;;;;;;;35.19;33.51;99835.97;5115679;28;20447;-71
2021/05/11 13:40:30;;;;;;;2.20;2.00;;;;;;;35.00;33.55;99829.81;5116397;28;20495;-71
2021/05/11 13:42:56;;;;;;;2.17;1.97;;;;;;;34.45;35.06;99827.56;5116580;28;20435;-71
2021/05/11 13:45:24;;;;;;;2.30;2.10;;;;;;;34.66;35.70;99834.09;5116199;28;20478;-70
2021/05/11 13:47:58;;;;;;;4.07;2.70;;;;;;;34.63;35.10;99819.75;5116251;28;20527;-71
2021/05/11 13:50:39;;;;;;;2.90;2.50;;;;;;;34.34;36.36;99819.69;5116137;27;20432;-71
2021/05/11 13:53:05;;;;;;;2.43;2.23;;;;;;;34.09;35.52;99821.03;5115902;28;20479;-71
2021/05/11 13:55:38;;;;;;;2.40;2.20;;;;;;;33.46;36.58;99818.19;5115928;28;20438;-70
2021/05/11 14:03:32;;;;;;;2.10;1.90;;;;;;;33.25;37.67;99814.41;5115584;28;20864;-70
2021/05/11 14:05:59;;;;;;;2.83;2.53;;;;;;;33.30;38.88;99824.97;5115791;28;20435;-70
2021/05/11 14:08:25;;;;;;;2.60;2.40;;;;;;;32.92;39.44;99811.59;5115775;28;20448;-71
2021/05/11 14:10:51;;;;;;;2.40;2.20;;;;;;;33.03;40.38;99817.47;5115665;28;20452;-71
2021/05/11 14:13:17;;;;;;;2.43;2.17;;;;;;;32.89;39.85;99830.16;5115670;28;20818;-71
2021/05/11 14:15:43;;;;;;;2.60;2.30;;;;;;;32.72;40.01;99812.13;5115617;28;20486;-72
2021/05/11 14:18:09;;;;;;;2.60;2.30;;;;;;;32.32;40.17;99818.72;5115540;28;20450;-71
2021/05/11 14:20:35;;;;;;;5.47;2.60;;;;;;;31.56;41.99;99814.00;5115264;28;20546;-72
2021/05/11 14:23:03;;;;;;;3.70;2.47;;;;;;;31.43;41.71;99810.56;5115423;28;20457;-71
2021/05/11 14:25:29;;;;;;;1.90;1.80;;;;;;;31.12;42.75;99805.78;5115461;28;20290;-72
2021/05/11 14:27:55;;;;;;;2.83;2.50;;;;;;;31.08;43.64;99808.75;5115418;28;20440;-71
2021/05/11 14:30:22;;;;;;;3.77;2.50;;;;;;;30.99;43.25;99800.31;5115321;28;20252;-72
2021/05/11 14:32:48;;;;;;;3.33;3.00;;;;;;;30.69;43.07;99801.09;5115296;28;20490;-72
2021/05/11 14:35:14;;;;;;;2.60;2.20;;;;;;;30.46;43.83;99797.56;5115236;28;20444;-72
2021/05/11 14:37:40;;;;;;;3.80;2.93;;;;;;;30.05;45.12;99793.81;5115200;28;20443;-72
2021/05/11 14:40:08;;;;;;;2.90;2.70;;;;;;;30.03;44.91;99793.50;5115112;28;20443;-71